METAR Data
IDs: Format: Raw Decoded Include TAF

Data at: 0034 UTC 14 May 2021

KHFY 140015Z AUTO 00000KT 10SM BKN100 17/00 A3030 RMK AO2 T01701003
KHFY 132355Z AUTO 05005KT 10SM BKN100 18/M01 A3030 RMK AO2 6//// T01751010
KHFY 132335Z AUTO 00000KT 10SM BKN100 18/M02 A3030 RMK AO2 T01771019
KHFY 132315Z AUTO 00000KT 10SM CLR 18/M02 A3031 RMK AO2 T01771020
KHFY 132255Z AUTO 00000KT 10SM SCT100 17/M02 A3031 RMK AO2 T01701023
KHFY 132235Z AUTO 03007KT 10SM BKN100 18/M01 A3032 RMK AO2 T01821011
KHFY 132215Z AUTO 00000KT 10SM SCT100 18/M01 A3032 RMK AO2 T01811014
KHFY 132155Z AUTO 10003KT 10SM BKN100 17/M01 A3033 RMK AO2 T01691009
KHFY 132135Z AUTO 05007KT 10SM BKN090 18/M01 A3033 RMK AO2 T01761012
KHFY 132115Z AUTO 00000KT 10SM SCT090 18/M01 A3034 RMK AO2 T01781009
KHFY 132035Z AUTO 11004KT 10SM SCT100 18/M01 A3035 RMK AO2 T01751009
KHFY 132015Z AUTO 06007KT 10SM BKN100 17/M01 A3036 RMK AO2 T01681010
KHFY 131935Z AUTO 04007KT 7SM BKN090 17/00 A3037 RMK AO2 T01681002
KHFY 131915Z AUTO 00000KT 10SM SCT090 18/00 A3037 RMK AO2 T01761001
KHFY 131855Z AUTO 09003KT 10SM BKN090 17/00 A3037 RMK AO2 T01741005
KHFY 131755Z AUTO 35006KT 10SM SCT075 17/00 A3039 RMK AO2 T01690000 10170 20047
KHFY 131735Z AUTO 05008KT 10SM SCT075 17/00 A3040 RMK AO2 T01651003
KHFY 131715Z AUTO 06007KT 10SM SCT075 16/00 A3041 RMK AO2 T01640000
KHFY 131655Z AUTO 06008KT 10SM SCT075 17/00 A3042 RMK AO2 T01661001
KHFY 131635Z AUTO 01005G15KT 10SM SCT075 16/M01 A3042 RMK AO2 T01571011
KHFY 131615Z AUTO 03008KT 10SM CLR 16/00 A3042 RMK AO2 T01600000
KHFY 131555Z AUTO 05003KT 10SM CLR 16/00 A3042 RMK AO2 T01561002
KHFY 131535Z AUTO 00000KT 10SM CLR 15/00 A3042 RMK AO2 T01541002
KHFY 131515Z AUTO 06003KT 10SM CLR 15/00 A3042 RMK AO2 T01521004
KHFY 131455Z AUTO 00000KT 10SM CLR 15/00 A3042 RMK AO2 T01481002
KHFY 131435Z AUTO 01003KT 10SM CLR 14/02 A3043 RMK AO2 T01410015
KHFY 131415Z AUTO 00000KT 10SM CLR 13/03 A3043 RMK AO2 T01310031
KHFY 131355Z AUTO 00000KT 10SM CLR 12/03 A3042 RMK AO2 T01200033
KHFY 131335Z AUTO 00000KT 10SM CLR 11/04 A3042 RMK AO2 T01120035
KHFY 131315Z AUTO 00000KT 10SM CLR 10/03 A3042 RMK AO2 T01020031
KHFY 131255Z AUTO 00000KT 10SM CLR 09/03 A3042 RMK AO2 T00940034
KHFY 131235Z AUTO 00000KT 10SM CLR 08/03 A3042 RMK AO2 T00830032
KHFY 131215Z AUTO 00000KT 10SM CLR 06/04 A3042 RMK AO2 T00590037
KHFY 131155Z AUTO 00000KT 10SM CLR 05/02 A3041 RMK AO2 6//// 7//// T00450022
KHFY 131135Z AUTO 00000KT 10SM CLR 03/02 A3041 RMK AO2 T00300017
KHFY 130055Z AUTO 05005KT 10SM CLR 13/01 A3035 RMK AO2 T01310009
KHFY 130035Z AUTO 06006KT 10SM CLR 14/00 A3035 RMK AO2 T01410004
KHFY 130015Z AUTO 07006G15KT 10SM SCT070 15/01 A3034 RMK AO2 T01470005
KHFY 122355Z AUTO 03009KT 10SM SCT070 15/01 A3035 RMK AO2 T01510005 10160 20136
KHFY 122335Z AUTO 04009G14KT 10SM SCT070 15/01 A3035 RMK AO2 T01540005
KHFY 122315Z AUTO 03006G14KT 10SM BKN070 16/00 A3035 RMK AO2 T01550003
KHFY 122255Z AUTO 08007KT 10SM BKN070 16/01 A3035 RMK AO2 T01550005
KHFY 122235Z AUTO 06008G14KT 10SM SCT070 15/00 A3036 RMK AO2 T01460000
KHFY 122215Z AUTO 06009KT 10SM SCT070 15/00 A3036 RMK AO2 T01540001
KHFY 122155Z AUTO 12005G09KT 10SM SCT070 15/00 A3036 RMK AO2 T01500002
KHFY 122135Z AUTO 12004KT 10SM SCT070 16/01 A3036 RMK AO2 T01580012
KHFY 122115Z AUTO 05007KT 10SM CLR 16/01 A3037 RMK AO2 T01550011
KHFY 122055Z AUTO 08008KT 10SM CLR 16/01 A3037 RMK AO2 T01550005
KHFY 122035Z AUTO 07008G14KT 10SM CLR 15/01 A3038 RMK AO2 T01540008
KHFY 122015Z AUTO 02004KT 10SM SCT065 15/01 A3038 RMK AO2 T01490005
KHFY 121955Z AUTO 02007G14KT 10SM SCT065 16/02 A3039 RMK AO2 T01560017
KHFY 121935Z AUTO 05010G15KT 10SM SCT065 15/01 A3039 RMK AO2 T01490006
KHFY 121915Z AUTO 08008G16KT 040V110 10SM CLR 15/00 A3040 RMK AO2 T01470004
KHFY 121855Z AUTO 06009KT 10SM SCT065 15/01 A3040 RMK AO2 T01460008
KHFY 121835Z AUTO 03005G14KT 10SM CLR 15/01 A3040 RMK AO2 T01450008
KHFY 121815Z AUTO 35007G14KT 10SM CLR 14/00 A3040 RMK AO2 T01370000
KHFY 121755Z AUTO 01007KT 010V100 10SM CLR 14/01 A3041 RMK AO2 T01390009 10139 20046
KHFY 121735Z AUTO 08005KT 10SM CLR 13/00 A3041 RMK AO2 T01321003
KHFY 121715Z AUTO 03007KT 10SM CLR 13/00 A3042 RMK AO2 T01281001
KHFY 121655Z AUTO 02007KT 10SM CLR 13/00 A3042 RMK AO2 T01300001
KHFY 121635Z AUTO 05006G16KT 10SM CLR 13/00 A3042 RMK AO2 T01261001
KHFY 121615Z AUTO 03009G14KT 10SM CLR 13/00 A3043 RMK AO2 T01250001
KHFY 121555Z AUTO 07006KT 10SM CLR 12/00 A3043 RMK AO2 T01240002
KHFY 121535Z AUTO 05010G14KT 030V090 10SM CLR 12/01 A3042 RMK AO2 T01210005
KHFY 121515Z AUTO 04011KT 10SM CLR 12/00 A3042 RMK AO2 T01150002
KHFY 121455Z AUTO 05008KT 10SM CLR 11/01 A3043 RMK AO2 T01110009
KHFY 121435Z AUTO 06008KT 10SM CLR 11/01 A3043 RMK AO2 T01090008
KHFY 121355Z AUTO 06009KT 10SM CLR 09/01 A3043 RMK AO2 T00940014
KHFY 121335Z AUTO 06006KT 10SM CLR 09/01 A3043 RMK AO2 T00850012
KHFY 121315Z AUTO 06006KT 10SM CLR 08/01 A3042 RMK AO2 T00770009
KHFY 121255Z AUTO 05006KT 10SM CLR 07/01 A3042 RMK AO2 T00700009
KHFY 121235Z AUTO 06005KT 10SM CLR 06/01 A3042 RMK AO2 T00630008